sensor_id;sensor_type;location;lat;lon;timestamp;P1;durP1;ratioP1;P2;durP2;ratioP2
49860;SDS011;35761;48.826;9.238;2023-03-31T00:01:12;10.60;;;2.15;;
49860;SDS011;35761;48.826;9.238;2023-03-31T00:03:43;5.00;;;1.98;;
49860;SDS011;35761;48.826;9.238;2023-03-31T00:06:14;9.25;;;2.10;;
49860;SDS011;35761;48.826;9.238;2023-03-31T00:08:46;6.80;;;2.40;;
49860;SDS011;35761;48.826;9.238;2023-03-31T00:11:20;10.07;;;1.67;;
49860;SDS011;35761;48.826;9.238;2023-03-31T00:13:54;8.50;;;2.13;;
49860;SDS011;35761;48.826;9.238;2023-03-31T00:16:24;7.45;;;2.17;;
49860;SDS011;35761;48.826;9.238;2023-03-31T00:18:55;9.07;;;2.42;;
49860;SDS011;35761;48.826;9.238;2023-03-31T00:21:28;8.45;;;2.13;;
49860;SDS011;35761;48.826;9.238;2023-03-31T00:24:00;6.88;;;3.13;;
49860;SDS011;35761;48.826;9.238;2023-03-31T00:26:34;5.95;;;1.83;;
49860;SDS011;35761;48.826;9.238;2023-03-31T00:29:08;7.20;;;2.10;;
49860;SDS011;35761;48.826;9.238;2023-03-31T00:31:41;8.85;;;2.60;;
49860;SDS011;35761;48.826;9.238;2023-03-31T00:34:11;9.10;;;2.13;;
49860;SDS011;35761;48.826;9.238;2023-03-31T00:36:42;9.98;;;2.45;;
49860;SDS011;35761;48.826;9.238;2023-03-31T00:39:15;11.13;;;2.67;;
49860;SDS011;35761;48.826;9.238;2023-03-31T00:41:47;5.75;;;2.38;;
49860;SDS011;35761;48.826;9.238;2023-03-31T00:44:20;8.02;;;1.98;;
49860;SDS011;35761;48.826;9.238;2023-03-31T00:46:53;14.63;;;3.83;;
49860;SDS011;35761;48.826;9.238;2023-03-31T00:49:28;9.40;;;2.92;;
49860;SDS011;35761;48.826;9.238;2023-03-31T00:54:35;10.00;;;2.92;;
49860;SDS011;35761;48.826;9.238;2023-03-31T00:57:07;8.82;;;3.05;;
49860;SDS011;35761;48.826;9.238;2023-03-31T00:59:43;13.93;;;3.33;;
49860;SDS011;35761;48.826;9.238;2023-03-31T01:02:18;9.02;;;2.97;;
49860;SDS011;35761;48.826;9.238;2023-03-31T01:04:52;14.27;;;3.75;;
49860;SDS011;35761;48.826;9.238;2023-03-31T01:07:30;15.40;;;3.30;;
49860;SDS011;35761;48.826;9.238;2023-03-31T01:10:07;10.18;;;3.45;;
49860;SDS011;35761;48.826;9.238;2023-03-31T01:12:39;12.15;;;3.03;;
49860;SDS011;35761;48.826;9.238;2023-03-31T01:15:18;6.47;;;2.58;;
49860;SDS011;35761;48.826;9.238;2023-03-31T01:17:49;10.95;;;2.28;;
49860;SDS011;35761;48.826;9.238;2023-03-31T01:20:24;10.23;;;2.50;;
49860;SDS011;35761;48.826;9.238;2023-03-31T01:26:32;10.48;;;2.58;;
49860;SDS011;35761;48.826;9.238;2023-03-31T01:35:51;11.68;;;2.45;;
49860;SDS011;35761;48.826;9.238;2023-03-31T01:42:02;8.30;;;2.20;;
49860;SDS011;35761;48.826;9.238;2023-03-31T01:44:39;8.25;;;2.40;;
49860;SDS011;35761;48.826;9.238;2023-03-31T01:47:17;9.63;;;2.97;;
49860;SDS011;35761;48.826;9.238;2023-03-31T01:49:54;10.73;;;3.25;;
49860;SDS011;35761;48.826;9.238;2023-03-31T01:52:34;10.52;;;2.63;;
49860;SDS011;35761;48.826;9.238;2023-03-31T01:55:11;8.98;;;2.55;;
49860;SDS011;35761;48.826;9.238;2023-03-31T01:57:56;10.30;;;2.10;;
49860;SDS011;35761;48.826;9.238;2023-03-31T02:00:35;13.50;;;2.15;;
49860;SDS011;35761;48.826;9.238;2023-03-31T02:03:10;7.03;;;2.25;;
49860;SDS011;35761;48.826;9.238;2023-03-31T02:05:49;9.38;;;2.22;;
49860;SDS011;35761;48.826;9.238;2023-03-31T02:08:23;9.18;;;2.45;;
49860;SDS011;35761;48.826;9.238;2023-03-31T02:10:58;12.13;;;2.83;;
49860;SDS011;35761;48.826;9.238;2023-03-31T02:13:32;10.20;;;2.47;;
49860;SDS011;35761;48.826;9.238;2023-03-31T02:16:05;8.52;;;1.98;;
49860;SDS011;35761;48.826;9.238;2023-03-31T02:18:41;8.43;;;1.90;;
49860;SDS011;35761;48.826;9.238;2023-03-31T02:21:14;8.57;;;2.20;;
49860;SDS011;35761;48.826;9.238;2023-03-31T02:23:45;8.27;;;1.80;;
49860;SDS011;35761;48.826;9.238;2023-03-31T02:26:19;7.57;;;2.05;;
49860;SDS011;35761;48.826;9.238;2023-03-31T02:28:58;6.60;;;1.90;;
49860;SDS011;35761;48.826;9.238;2023-03-31T02:31:31;10.48;;;2.30;;
49860;SDS011;35761;48.826;9.238;2023-03-31T02:34:11;11.07;;;2.80;;
49860;SDS011;35761;48.826;9.238;2023-03-31T02:36:41;10.80;;;2.40;;
49860;SDS011;35761;48.826;9.238;2023-03-31T02:39:14;10.55;;;1.90;;
49860;SDS011;35761;48.826;9.238;2023-03-31T02:41:50;8.60;;;2.42;;
49860;SDS011;35761;48.826;9.238;2023-03-31T02:44:23;9.27;;;2.33;;
49860;SDS011;35761;48.826;9.238;2023-03-31T02:46:54;11.43;;;2.47;;
49860;SDS011;35761;48.826;9.238;2023-03-31T02:49:24;7.35;;;2.60;;
49860;SDS011;35761;48.826;9.238;2023-03-31T02:51:58;7.63;;;1.98;;
49860;SDS011;35761;48.826;9.238;2023-03-31T02:55:25;6.65;;;1.80;;
49860;SDS011;35761;48.826;9.238;2023-03-31T02:58:18;9.45;;;2.72;;
49860;SDS011;35761;48.826;9.238;2023-03-31T03:01:26;6.28;;;2.20;;
49860;SDS011;35761;48.826;9.238;2023-03-31T03:04:12;8.30;;;2.20;;
49860;SDS011;35761;48.826;9.238;2023-03-31T03:07:04;11.95;;;4.63;;
49860;SDS011;35761;48.826;9.238;2023-03-31T03:09:44;13.05;;;3.83;;
49860;SDS011;35761;48.826;9.238;2023-03-31T03:12:25;9.60;;;2.50;;
49860;SDS011;35761;48.826;9.238;2023-03-31T03:15:04;7.85;;;2.35;;
49860;SDS011;35761;48.826;9.238;2023-03-31T03:17:44;12.63;;;2.50;;
49860;SDS011;35761;48.826;9.238;2023-03-31T03:20:17;9.88;;;2.50;;
49860;SDS011;35761;48.826;9.238;2023-03-31T03:22:49;7.03;;;2.15;;
49860;SDS011;35761;48.826;9.238;2023-03-31T03:25:20;11.80;;;3.95;;
49860;SDS011;35761;48.826;9.238;2023-03-31T03:27:51;11.10;;;2.78;;
49860;SDS011;35761;48.826;9.238;2023-03-31T03:30:22;12.80;;;3.13;;
49860;SDS011;35761;48.826;9.238;2023-03-31T03:32:54;8.45;;;2.47;;
49860;SDS011;35761;48.826;9.238;2023-03-31T03:35:25;10.52;;;2.70;;
49860;SDS011;35761;48.826;9.238;2023-03-31T03:37:56;10.32;;;2.72;;
49860;SDS011;35761;48.826;9.238;2023-03-31T03:40:26;7.03;;;2.33;;
49860;SDS011;35761;48.826;9.238;2023-03-31T03:42:57;8.48;;;2.53;;
49860;SDS011;35761;48.826;9.238;2023-03-31T03:45:27;9.60;;;2.40;;
49860;SDS011;35761;48.826;9.238;2023-03-31T03:48:00;6.38;;;2.17;;
49860;SDS011;35761;48.826;9.238;2023-03-31T03:50:31;8.93;;;3.40;;
49860;SDS011;35761;48.826;9.238;2023-03-31T03:53:05;12.60;;;3.00;;
49860;SDS011;35761;48.826;9.238;2023-03-31T03:55:36;7.63;;;2.50;;
49860;SDS011;35761;48.826;9.238;2023-03-31T03:58:07;9.25;;;2.78;;
49860;SDS011;35761;48.826;9.238;2023-03-31T04:00:37;7.50;;;2.72;;
49860;SDS011;35761;48.826;9.238;2023-03-31T04:03:10;5.28;;;2.60;;
49860;SDS011;35761;48.826;9.238;2023-03-31T04:05:42;9.50;;;2.95;;
49860;SDS011;35761;48.826;9.238;2023-03-31T04:08:15;10.85;;;2.75;;
49860;SDS011;35761;48.826;9.238;2023-03-31T04:10:47;7.63;;;2.45;;
49860;SDS011;35761;48.826;9.238;2023-03-31T04:13:18;7.70;;;3.10;;
49860;SDS011;35761;48.826;9.238;2023-03-31T04:15:49;9.88;;;3.17;;
49860;SDS011;35761;48.826;9.238;2023-03-31T04:18:22;6.93;;;2.60;;
49860;SDS011;35761;48.826;9.238;2023-03-31T04:20:52;11.38;;;3.20;;
49860;SDS011;35761;48.826;9.238;2023-03-31T04:23:30;9.85;;;2.70;;
49860;SDS011;35761;48.826;9.238;2023-03-31T04:26:01;11.07;;;2.80;;
49860;SDS011;35761;48.826;9.238;2023-03-31T04:28:34;17.83;;;2.80;;
49860;SDS011;35761;48.826;9.238;2023-03-31T04:31:08;10.57;;;2.43;;
49860;SDS011;35761;48.826;9.238;2023-03-31T04:33:44;9.00;;;2.80;;
49860;SDS011;35761;48.826;9.238;2023-03-31T04:36:16;13.10;;;3.15;;
49860;SDS011;35761;48.826;9.238;2023-03-31T04:38:48;12.82;;;2.72;;
49860;SDS011;35761;48.826;9.238;2023-03-31T04:41:20;8.98;;;2.30;;
49860;SDS011;35761;48.826;9.238;2023-03-31T04:43:53;10.13;;;3.30;;
49860;SDS011;35761;48.826;9.238;2023-03-31T04:46:24;12.18;;;3.00;;
49860;SDS011;35761;48.826;9.238;2023-03-31T04:48:57;11.35;;;3.22;;
49860;SDS011;35761;48.826;9.238;2023-03-31T04:51:28;13.53;;;3.53;;
49860;SDS011;35761;48.826;9.238;2023-03-31T04:53:59;13.40;;;4.13;;
49860;SDS011;35761;48.826;9.238;2023-03-31T04:56:29;18.63;;;4.95;;
49860;SDS011;35761;48.826;9.238;2023-03-31T04:58:59;11.00;;;3.33;;
49860;SDS011;35761;48.826;9.238;2023-03-31T05:01:30;11.02;;;2.88;;
49860;SDS011;35761;48.826;9.238;2023-03-31T05:04:05;10.45;;;4.13;;
49860;SDS011;35761;48.826;9.238;2023-03-31T05:06:35;14.85;;;3.90;;
49860;SDS011;35761;48.826;9.238;2023-03-31T05:09:06;8.35;;;3.50;;
49860;SDS011;35761;48.826;9.238;2023-03-31T05:11:36;11.80;;;3.42;;
49860;SDS011;35761;48.826;9.238;2023-03-31T05:14:07;11.43;;;3.50;;
49860;SDS011;35761;48.826;9.238;2023-03-31T05:16:38;10.93;;;3.40;;
49860;SDS011;35761;48.826;9.238;2023-03-31T05:19:11;14.30;;;3.80;;
49860;SDS011;35761;48.826;9.238;2023-03-31T05:24:14;10.73;;;2.75;;
49860;SDS011;35761;48.826;9.238;2023-03-31T05:26:45;11.27;;;2.97;;
49860;SDS011;35761;48.826;9.238;2023-03-31T05:29:18;12.00;;;3.05;;
49860;SDS011;35761;48.826;9.238;2023-03-31T05:31:49;8.38;;;3.10;;
49860;SDS011;35761;48.826;9.238;2023-03-31T05:34:22;9.82;;;3.03;;
49860;SDS011;35761;48.826;9.238;2023-03-31T05:36:53;12.98;;;3.58;;
49860;SDS011;35761;48.826;9.238;2023-03-31T05:39:24;10.63;;;3.42;;
49860;SDS011;35761;48.826;9.238;2023-03-31T05:41:58;19.00;;;4.88;;
49860;SDS011;35761;48.826;9.238;2023-03-31T05:44:31;10.35;;;3.28;;
49860;SDS011;35761;48.826;9.238;2023-03-31T05:47:01;7.38;;;3.08;;
49860;SDS011;35761;48.826;9.238;2023-03-31T05:49:35;12.60;;;3.97;;
49860;SDS011;35761;48.826;9.238;2023-03-31T05:52:05;12.07;;;3.50;;
49860;SDS011;35761;48.826;9.238;2023-03-31T05:54:38;10.48;;;3.53;;
49860;SDS011;35761;48.826;9.238;2023-03-31T05:57:10;12.52;;;3.97;;
49860;SDS011;35761;48.826;9.238;2023-03-31T05:59:40;9.52;;;3.78;;
49860;SDS011;35761;48.826;9.238;2023-03-31T06:02:11;15.38;;;3.67;;
49860;SDS011;35761;48.826;9.238;2023-03-31T06:04:46;9.63;;;3.70;;
49860;SDS011;35761;48.826;9.238;2023-03-31T06:07:17;17.00;;;4.63;;
49860;SDS011;35761;48.826;9.238;2023-03-31T06:09:48;10.48;;;3.92;;
49860;SDS011;35761;48.826;9.238;2023-03-31T06:12:19;14.55;;;4.22;;
49860;SDS011;35761;48.826;9.238;2023-03-31T06:14:49;11.68;;;4.03;;
49860;SDS011;35761;48.826;9.238;2023-03-31T06:17:20;12.07;;;4.22;;
49860;SDS011;35761;48.826;9.238;2023-03-31T06:19:53;9.07;;;4.05;;
49860;SDS011;35761;48.826;9.238;2023-03-31T06:22:23;13.02;;;4.05;;
49860;SDS011;35761;48.826;9.238;2023-03-31T06:24:54;11.43;;;3.90;;
49860;SDS011;35761;48.826;9.238;2023-03-31T06:27:24;12.68;;;4.40;;
49860;SDS011;35761;48.826;9.238;2023-03-31T06:29:55;22.92;;;10.82;;
49860;SDS011;35761;48.826;9.238;2023-03-31T06:32:25;17.38;;;5.75;;
49860;SDS011;35761;48.826;9.238;2023-03-31T06:34:58;17.00;;;5.03;;
49860;SDS011;35761;48.826;9.238;2023-03-31T06:37:29;13.32;;;4.05;;
49860;SDS011;35761;48.826;9.238;2023-03-31T06:39:59;11.27;;;3.90;;
49860;SDS011;35761;48.826;9.238;2023-03-31T06:42:30;11.45;;;4.80;;
49860;SDS011;35761;48.826;9.238;2023-03-31T06:45:00;18.23;;;5.90;;
49860;SDS011;35761;48.826;9.238;2023-03-31T06:47:31;15.13;;;4.90;;
49860;SDS011;35761;48.826;9.238;2023-03-31T06:50:07;25.70;;;10.40;;
49860;SDS011;35761;48.826;9.238;2023-03-31T06:52:39;16.27;;;6.10;;
49860;SDS011;35761;48.826;9.238;2023-03-31T06:55:09;14.13;;;5.18;;
49860;SDS011;35761;48.826;9.238;2023-03-31T06:57:41;18.88;;;5.72;;
49860;SDS011;35761;48.826;9.238;2023-03-31T07:00:12;15.68;;;5.68;;
49860;SDS011;35761;48.826;9.238;2023-03-31T07:02:48;15.27;;;5.43;;
49860;SDS011;35761;48.826;9.238;2023-03-31T07:05:21;19.58;;;5.70;;
49860;SDS011;35761;48.826;9.238;2023-03-31T07:07:53;13.50;;;5.53;;
49860;SDS011;35761;48.826;9.238;2023-03-31T07:10:25;17.05;;;5.07;;
49860;SDS011;35761;48.826;9.238;2023-03-31T07:12:58;18.45;;;4.82;;
49860;SDS011;35761;48.826;9.238;2023-03-31T07:15:31;12.55;;;3.92;;
49860;SDS011;35761;48.826;9.238;2023-03-31T07:18:01;14.15;;;4.13;;
49860;SDS011;35761;48.826;9.238;2023-03-31T07:20:35;10.07;;;4.05;;
49860;SDS011;35761;48.826;9.238;2023-03-31T07:23:05;14.55;;;4.13;;
49860;SDS011;35761;48.826;9.238;2023-03-31T07:25:36;11.10;;;3.85;;
49860;SDS011;35761;48.826;9.238;2023-03-31T07:28:07;13.68;;;3.67;;
49860;SDS011;35761;48.826;9.238;2023-03-31T07:30:37;10.32;;;3.35;;
49860;SDS011;35761;48.826;9.238;2023-03-31T07:33:09;10.68;;;3.00;;
49860;SDS011;35761;48.826;9.238;2023-03-31T07:35:42;10.80;;;2.97;;
49860;SDS011;35761;48.826;9.238;2023-03-31T07:38:29;7.32;;;2.92;;
49860;SDS011;35761;48.826;9.238;2023-03-31T07:40:59;9.15;;;3.03;;
49860;SDS011;35761;48.826;9.238;2023-03-31T07:43:35;7.40;;;2.75;;
49860;SDS011;35761;48.826;9.238;2023-03-31T07:46:06;9.85;;;2.95;;
49860;SDS011;35761;48.826;9.238;2023-03-31T07:48:43;6.45;;;2.70;;
49860;SDS011;35761;48.826;9.238;2023-03-31T07:51:20;4.82;;;2.15;;
49860;SDS011;35761;48.826;9.238;2023-03-31T07:53:54;6.72;;;2.10;;
49860;SDS011;35761;48.826;9.238;2023-03-31T07:56:24;7.25;;;2.22;;
49860;SDS011;35761;48.826;9.238;2023-03-31T07:58:55;4.78;;;1.95;;
49860;SDS011;35761;48.826;9.238;2023-03-31T08:01:25;5.13;;;1.80;;
49860;SDS011;35761;48.826;9.238;2023-03-31T08:03:56;5.50;;;1.65;;
49860;SDS011;35761;48.826;9.238;2023-03-31T08:06:29;4.50;;;1.70;;
49860;SDS011;35761;48.826;9.238;2023-03-31T08:09:00;5.07;;;1.58;;
49860;SDS011;35761;48.826;9.238;2023-03-31T08:11:32;3.90;;;1.50;;
49860;SDS011;35761;48.826;9.238;2023-03-31T08:14:03;3.72;;;1.45;;
49860;SDS011;35761;48.826;9.238;2023-03-31T08:16:33;3.03;;;1.30;;
49860;SDS011;35761;48.826;9.238;2023-03-31T08:19:04;3.70;;;1.48;;
49860;SDS011;35761;48.826;9.238;2023-03-31T08:21:37;6.68;;;2.08;;
49860;SDS011;35761;48.826;9.238;2023-03-31T08:24:08;2.63;;;1.25;;
49860;SDS011;35761;48.826;9.238;2023-03-31T08:26:39;3.95;;;1.40;;
49860;SDS011;35761;48.826;9.238;2023-03-31T08:29:09;2.17;;;1.15;;
49860;SDS011;35761;48.826;9.238;2023-03-31T08:31:40;5.25;;;1.20;;
49860;SDS011;35761;48.826;9.238;2023-03-31T08:34:11;4.05;;;1.08;;
49860;SDS011;35761;48.826;9.238;2023-03-31T08:36:44;2.78;;;1.13;;
49860;SDS011;35761;48.826;9.238;2023-03-31T08:39:14;5.72;;;1.90;;
49860;SDS011;35761;48.826;9.238;2023-03-31T08:41:46;5.80;;;1.30;;
49860;SDS011;35761;48.826;9.238;2023-03-31T08:44:25;5.20;;;1.50;;
49860;SDS011;35761;48.826;9.238;2023-03-31T08:47:03;4.13;;;1.50;;
49860;SDS011;35761;48.826;9.238;2023-03-31T08:49:38;8.13;;;1.70;;
49860;SDS011;35761;48.826;9.238;2023-03-31T08:52:18;4.85;;;1.30;;
49860;SDS011;35761;48.826;9.238;2023-03-31T08:54:55;3.10;;;1.33;;
49860;SDS011;35761;48.826;9.238;2023-03-31T08:57:30;6.13;;;1.45;;
49860;SDS011;35761;48.826;9.238;2023-03-31T09:00:12;5.55;;;1.60;;
49860;SDS011;35761;48.826;9.238;2023-03-31T09:02:47;5.22;;;1.70;;
49860;SDS011;35761;48.826;9.238;2023-03-31T09:08:36;5.40;;;1.45;;
49860;SDS011;35761;48.826;9.238;2023-03-31T09:11:12;4.20;;;1.35;;
49860;SDS011;35761;48.826;9.238;2023-03-31T09:13:55;5.05;;;1.67;;
49860;SDS011;35761;48.826;9.238;2023-03-31T09:16:39;7.32;;;2.50;;
49860;SDS011;35761;48.826;9.238;2023-03-31T09:19:17;4.80;;;1.50;;
49860;SDS011;35761;48.826;9.238;2023-03-31T09:22:02;8.07;;;1.42;;
49860;SDS011;35761;48.826;9.238;2023-03-31T09:24:45;5.72;;;1.20;;
49860;SDS011;35761;48.826;9.238;2023-03-31T09:27:21;6.95;;;1.65;;
49860;SDS011;35761;48.826;9.238;2023-03-31T09:29:57;5.45;;;1.88;;
49860;SDS011;35761;48.826;9.238;2023-03-31T09:32:34;6.13;;;1.58;;
49860;SDS011;35761;48.826;9.238;2023-03-31T09:35:12;4.20;;;1.30;;
49860;SDS011;35761;48.826;9.238;2023-03-31T09:37:47;5.35;;;1.27;;
49860;SDS011;35761;48.826;9.238;2023-03-31T09:40:22;9.95;;;2.13;;
49860;SDS011;35761;48.826;9.238;2023-03-31T09:42:57;7.47;;;1.70;;
49860;SDS011;35761;48.826;9.238;2023-03-31T09:45:30;4.88;;;1.48;;
49860;SDS011;35761;48.826;9.238;2023-03-31T09:48:02;5.65;;;1.52;;
49860;SDS011;35761;48.826;9.238;2023-03-31T09:50:39;5.90;;;2.03;;
49860;SDS011;35761;48.826;9.238;2023-03-31T09:53:17;9.00;;;1.75;;
49860;SDS011;35761;48.826;9.238;2023-03-31T09:55:55;9.02;;;1.90;;
49860;SDS011;35761;48.826;9.238;2023-03-31T09:58:33;11.43;;;2.30;;
49860;SDS011;35761;48.826;9.238;2023-03-31T10:01:10;7.43;;;1.65;;
49860;SDS011;35761;48.826;9.238;2023-03-31T10:03:46;11.50;;;2.03;;
49860;SDS011;35761;48.826;9.238;2023-03-31T10:06:20;8.32;;;1.83;;
49860;SDS011;35761;48.826;9.238;2023-03-31T10:08:53;7.18;;;1.67;;
49860;SDS011;35761;48.826;9.238;2023-03-31T10:11:27;8.65;;;2.00;;
49860;SDS011;35761;48.826;9.238;2023-03-31T10:13:59;8.52;;;2.22;;
49860;SDS011;35761;48.826;9.238;2023-03-31T10:16:33;9.27;;;2.08;;
49860;SDS011;35761;48.826;9.238;2023-03-31T10:19:18;6.30;;;1.60;;
49860;SDS011;35761;48.826;9.238;2023-03-31T10:21:55;15.48;;;1.70;;
49860;SDS011;35761;48.826;9.238;2023-03-31T10:24:28;7.18;;;2.00;;
49860;SDS011;35761;48.826;9.238;2023-03-31T10:27:14;8.32;;;2.10;;
49860;SDS011;35761;48.826;9.238;2023-03-31T10:29:50;5.60;;;1.60;;
49860;SDS011;35761;48.826;9.238;2023-03-31T10:32:22;9.68;;;2.25;;
49860;SDS011;35761;48.826;9.238;2023-03-31T10:34:55;9.43;;;2.05;;
49860;SDS011;35761;48.826;9.238;2023-03-31T10:37:32;7.32;;;1.90;;
49860;SDS011;35761;48.826;9.238;2023-03-31T10:40:12;7.53;;;1.77;;
49860;SDS011;35761;48.826;9.238;2023-03-31T10:42:49;5.97;;;1.90;;
49860;SDS011;35761;48.826;9.238;2023-03-31T10:45:30;12.73;;;2.17;;
49860;SDS011;35761;48.826;9.238;2023-03-31T10:48:15;9.98;;;2.42;;
49860;SDS011;35761;48.826;9.238;2023-03-31T10:50:48;8.77;;;1.70;;
49860;SDS011;35761;48.826;9.238;2023-03-31T10:53:19;8.18;;;1.98;;
49860;SDS011;35761;48.826;9.238;2023-03-31T10:55:53;7.97;;;1.75;;
49860;SDS011;35761;48.826;9.238;2023-03-31T10:58:41;14.13;;;1.90;;
49860;SDS011;35761;48.826;9.238;2023-03-31T11:01:35;10.32;;;1.75;;
49860;SDS011;35761;48.826;9.238;2023-03-31T11:04:26;6.63;;;1.73;;
49860;SDS011;35761;48.826;9.238;2023-03-31T11:07:13;10.45;;;1.80;;
49860;SDS011;35761;48.826;9.238;2023-03-31T11:10:01;7.20;;;1.80;;
49860;SDS011;35761;48.826;9.238;2023-03-31T11:12:47;8.38;;;1.83;;
49860;SDS011;35761;48.826;9.238;2023-03-31T11:15:29;7.80;;;1.92;;
49860;SDS011;35761;48.826;9.238;2023-03-31T11:18:17;8.95;;;1.90;;
49860;SDS011;35761;48.826;9.238;2023-03-31T11:21:10;7.78;;;1.80;;
49860;SDS011;35761;48.826;9.238;2023-03-31T11:23:52;5.45;;;1.77;;
49860;SDS011;35761;48.826;9.238;2023-03-31T11:26:34;15.65;;;1.60;;
49860;SDS011;35761;48.826;9.238;2023-03-31T11:29:19;5.88;;;1.15;;
49860;SDS011;35761;48.826;9.238;2023-03-31T11:32:05;5.43;;;1.23;;
49860;SDS011;35761;48.826;9.238;2023-03-31T11:35:00;5.93;;;0.98;;
49860;SDS011;35761;48.826;9.238;2023-03-31T11:37:56;6.40;;;1.20;;
49860;SDS011;35761;48.826;9.238;2023-03-31T11:40:52;2.15;;;0.90;;
49860;SDS011;35761;48.826;9.238;2023-03-31T11:43:29;3.17;;;0.60;;
49860;SDS011;35761;48.826;9.238;2023-03-31T11:46:06;1.73;;;0.70;;
49860;SDS011;35761;48.826;9.238;2023-03-31T11:48:45;1.25;;;0.50;;
49860;SDS011;35761;48.826;9.238;2023-03-31T11:51:23;2.38;;;0.82;;
49860;SDS011;35761;48.826;9.238;2023-03-31T11:53:58;5.00;;;1.20;;
49860;SDS011;35761;48.826;9.238;2023-03-31T11:56:38;2.67;;;0.63;;
49860;SDS011;35761;48.826;9.238;2023-03-31T11:59:10;0.77;;;0.45;;
49860;SDS011;35761;48.826;9.238;2023-03-31T12:01:46;2.60;;;0.50;;
49860;SDS011;35761;48.826;9.238;2023-03-31T12:04:29;2.78;;;0.50;;
49860;SDS011;35761;48.826;9.238;2023-03-31T12:07:07;2.72;;;0.73;;
49860;SDS011;35761;48.826;9.238;2023-03-31T12:09:52;2.67;;;0.73;;
49860;SDS011;35761;48.826;9.238;2023-03-31T12:12:32;2.10;;;0.50;;
49860;SDS011;35761;48.826;9.238;2023-03-31T12:15:12;1.52;;;0.50;;
49860;SDS011;35761;48.826;9.238;2023-03-31T12:17:49;1.17;;;0.77;;
49860;SDS011;35761;48.826;9.238;2023-03-31T12:20:32;2.22;;;0.73;;
49860;SDS011;35761;48.826;9.238;2023-03-31T12:23:09;3.30;;;0.90;;
49860;SDS011;35761;48.826;9.238;2023-03-31T12:25:45;3.17;;;0.70;;
49860;SDS011;35761;48.826;9.238;2023-03-31T12:28:22;2.15;;;0.70;;
49860;SDS011;35761;48.826;9.238;2023-03-31T12:30:55;2.42;;;0.90;;
49860;SDS011;35761;48.826;9.238;2023-03-31T12:33:29;5.75;;;1.35;;
49860;SDS011;35761;48.826;9.238;2023-03-31T12:36:08;3.55;;;0.88;;
49860;SDS011;35761;48.826;9.238;2023-03-31T12:38:56;3.60;;;1.20;;
49860;SDS011;35761;48.826;9.238;2023-03-31T12:41:57;3.60;;;1.23;;
49860;SDS011;35761;48.826;9.238;2023-03-31T12:44:46;3.83;;;1.20;;
49860;SDS011;35761;48.826;9.238;2023-03-31T12:47:27;4.07;;;1.00;;
49860;SDS011;35761;48.826;9.238;2023-03-31T12:50:20;7.25;;;0.95;;
49860;SDS011;35761;48.826;9.238;2023-03-31T12:53:08;3.20;;;1.08;;
49860;SDS011;35761;48.826;9.238;2023-03-31T12:55:53;6.65;;;1.02;;
49860;SDS011;35761;48.826;9.238;2023-03-31T13:01:20;5.82;;;1.13;;
49860;SDS011;35761;48.826;9.238;2023-03-31T13:04:06;4.88;;;1.30;;
49860;SDS011;35761;48.826;9.238;2023-03-31T13:06:55;3.95;;;1.20;;
49860;SDS011;35761;48.826;9.238;2023-03-31T13:09:42;4.97;;;1.30;;
49860;SDS011;35761;48.826;9.238;2023-03-31T13:12:21;3.17;;;1.13;;
49860;SDS011;35761;48.826;9.238;2023-03-31T13:14:54;6.57;;;1.63;;
49860;SDS011;35761;48.826;9.238;2023-03-31T13:17:28;9.88;;;1.30;;
49860;SDS011;35761;48.826;9.238;2023-03-31T13:20:14;6.60;;;1.90;;
49860;SDS011;35761;48.826;9.238;2023-03-31T13:25:54;6.85;;;1.50;;
49860;SDS011;35761;48.826;9.238;2023-03-31T13:28:33;3.67;;;1.17;;
49860;SDS011;35761;48.826;9.238;2023-03-31T13:31:08;7.82;;;1.10;;
49860;SDS011;35761;48.826;9.238;2023-03-31T13:33:41;4.82;;;0.95;;
49860;SDS011;35761;48.826;9.238;2023-03-31T13:36:18;2.10;;;0.60;;
49860;SDS011;35761;48.826;9.238;2023-03-31T13:42:41;1.77;;;0.77;;
49860;SDS011;35761;48.826;9.238;2023-03-31T13:48:54;3.88;;;0.70;;
49860;SDS011;35761;48.826;9.238;2023-03-31T13:51:39;1.48;;;0.60;;
49860;SDS011;35761;48.826;9.238;2023-03-31T14:01:03;2.53;;;0.60;;
49860;SDS011;35761;48.826;9.238;2023-03-31T14:04:15;1.27;;;0.35;;
49860;SDS011;35761;48.826;9.238;2023-03-31T14:06:59;1.30;;;0.52;;
49860;SDS011;35761;48.826;9.238;2023-03-31T14:09:39;2.22;;;0.55;;
49860;SDS011;35761;48.826;9.238;2023-03-31T14:12:19;1.27;;;0.57;;
49860;SDS011;35761;48.826;9.238;2023-03-31T14:15:04;2.00;;;0.50;;
49860;SDS011;35761;48.826;9.238;2023-03-31T14:17:46;3.00;;;0.75;;
49860;SDS011;35761;48.826;9.238;2023-03-31T14:20:27;0.95;;;0.50;;
49860;SDS011;35761;48.826;9.238;2023-03-31T14:23:10;2.00;;;0.95;;
49860;SDS011;35761;48.826;9.238;2023-03-31T14:25:52;3.60;;;0.80;;
49860;SDS011;35761;48.826;9.238;2023-03-31T14:28:35;3.97;;;0.95;;
49860;SDS011;35761;48.826;9.238;2023-03-31T14:31:40;2.13;;;1.05;;
49860;SDS011;35761;48.826;9.238;2023-03-31T14:34:34;1.10;;;0.68;;
49860;SDS011;35761;48.826;9.238;2023-03-31T14:37:24;5.75;;;1.05;;
49860;SDS011;35761;48.826;9.238;2023-03-31T14:39:56;3.28;;;0.80;;
49860;SDS011;35761;48.826;9.238;2023-03-31T14:42:32;2.75;;;0.80;;
49860;SDS011;35761;48.826;9.238;2023-03-31T14:45:14;3.22;;;1.02;;
49860;SDS011;35761;48.826;9.238;2023-03-31T14:47:57;3.70;;;1.05;;
49860;SDS011;35761;48.826;9.238;2023-03-31T14:50:40;5.05;;;2.05;;
49860;SDS011;35761;48.826;9.238;2023-03-31T14:53:13;6.68;;;3.08;;
49860;SDS011;35761;48.826;9.238;2023-03-31T14:55:44;2.05;;;0.80;;
49860;SDS011;35761;48.826;9.238;2023-03-31T14:58:25;3.50;;;0.90;;
49860;SDS011;35761;48.826;9.238;2023-03-31T15:01:01;2.05;;;0.68;;
49860;SDS011;35761;48.826;9.238;2023-03-31T15:03:38;13.75;;;4.47;;
49860;SDS011;35761;48.826;9.238;2023-03-31T15:06:10;8.05;;;3.90;;
49860;SDS011;35761;48.826;9.238;2023-03-31T15:08:41;2.22;;;0.80;;
49860;SDS011;35761;48.826;9.238;2023-03-31T15:11:13;3.42;;;1.00;;
49860;SDS011;35761;48.826;9.238;2023-03-31T15:13:47;2.95;;;0.93;;
49860;SDS011;35761;48.826;9.238;2023-03-31T15:16:32;4.05;;;1.10;;
49860;SDS011;35761;48.826;9.238;2023-03-31T15:19:14;2.97;;;0.90;;
49860;SDS011;35761;48.826;9.238;2023-03-31T15:21:52;5.05;;;0.77;;
49860;SDS011;35761;48.826;9.238;2023-03-31T15:24:27;4.75;;;1.20;;
49860;SDS011;35761;48.826;9.238;2023-03-31T15:26:59;3.35;;;1.00;;
49860;SDS011;35761;48.826;9.238;2023-03-31T15:29:34;3.28;;;1.10;;
49860;SDS011;35761;48.826;9.238;2023-03-31T15:32:11;4.22;;;0.82;;
49860;SDS011;35761;48.826;9.238;2023-03-31T15:34:49;4.53;;;1.00;;
49860;SDS011;35761;48.826;9.238;2023-03-31T15:37:20;5.40;;;1.20;;
49860;SDS011;35761;48.826;9.238;2023-03-31T15:39:54;6.00;;;1.27;;
49860;SDS011;35761;48.826;9.238;2023-03-31T15:42:26;4.43;;;1.20;;
49860;SDS011;35761;48.826;9.238;2023-03-31T15:45:01;5.60;;;1.25;;
49860;SDS011;35761;48.826;9.238;2023-03-31T15:48:08;3.90;;;1.17;;
49860;SDS011;35761;48.826;9.238;2023-03-31T15:50:49;5.65;;;1.25;;
49860;SDS011;35761;48.826;9.238;2023-03-31T15:53:22;3.85;;;0.90;;
49860;SDS011;35761;48.826;9.238;2023-03-31T15:55:58;3.00;;;1.10;;
49860;SDS011;35761;48.826;9.238;2023-03-31T15:58:45;3.67;;;1.20;;
49860;SDS011;35761;48.826;9.238;2023-03-31T16:01:27;4.65;;;1.25;;
49860;SDS011;35761;48.826;9.238;2023-03-31T16:04:00;6.22;;;1.13;;
49860;SDS011;35761;48.826;9.238;2023-03-31T16:06:43;2.88;;;1.10;;
49860;SDS011;35761;48.826;9.238;2023-03-31T16:09:18;3.97;;;1.30;;
49860;SDS011;35761;48.826;9.238;2023-03-31T16:11:53;3.00;;;0.93;;
49860;SDS011;35761;48.826;9.238;2023-03-31T16:14:28;1.77;;;0.77;;
49860;SDS011;35761;48.826;9.238;2023-03-31T16:19:37;4.55;;;0.90;;
49860;SDS011;35761;48.826;9.238;2023-03-31T16:22:15;4.60;;;1.38;;